Airfield :
LOGIN :

Register | Disclaimer

   EN    FR    IT 

 










Legend :    VFR   Marginal VFR   IFR   Intensive IFR   Very Intensive IFR
Visi :
Ceiling :
>= 8 km
>= 3000ft
5 to 8 km
1000 to 3000 ft
1500m to 5 km
500 to 1000 ft
800 to 1500m
200 to 500 ft
< 800m
< 200 ft
Symbols :   Thunderstorms  Fog  Heavy snow  Heavy precipitations  Wind > 20 kt
SIGMETs :     Misc.  Thunderstorms  Icing  Turbulence  Mountain Waves  Volcanic Ashes






- Airport Elevation : 297 ft


EGVP - Middle Wallop

CURRENT METAR :
  • 070650Z 36011KT 9999 FEW020 OVC024 17/13 Q1028 BECMG BKN025 RMK WHT BECMG BLU

EXPIRED METARs :
  • 070550Z 33006KT 9999 OVC021 17/13 Q1027 RMK WHT
  • 070450Z 30006KT 9999 BKN022 16/14 Q1026 RMK WHT
  • 070350Z AUTO 28008KT 9999 BKN030/// 16/14 Q1026

TAF TAF EGVP
Valid from the 07 at 07:00 until the 07 at 15:00 UTC


070642Z 0707/0715 36010KT 9999 BKN020
BECMG 0707/0710 SCT025
ATIS : +44 1980 674 142



MET'MAP, your aeronautical weather chart ! - Copyright ORBIFLY December 2007 - Disclaimer

ORBIFLY MET'MAP TEAM :

Programming & Development : Alexandra Zaïnal
Original concept : Baudouin d'Aumeries
Technical & hardware support : Manuel Goepfert
Assistance : Marc-Olivier Méhu




SOURCES & CREDITS :

   NOAA